sensor_id;sensor_type;location;lat;lon;timestamp;temperature;humidity
75451;DHT22;64029;48.244;9.188;2023-11-21T00:00:11;5.40;91.00
75451;DHT22;64029;48.244;9.188;2023-11-21T00:02:38;5.40;91.10
75451;DHT22;64029;48.244;9.188;2023-11-21T00:05:07;5.40;91.20
75451;DHT22;64029;48.244;9.188;2023-11-21T00:07:35;5.40;91.30
75451;DHT22;64029;48.244;9.188;2023-11-21T00:10:02;5.40;91.20
75451;DHT22;64029;48.244;9.188;2023-11-21T00:12:30;5.40;91.30
75451;DHT22;64029;48.244;9.188;2023-11-21T00:14:57;5.40;91.30
75451;DHT22;64029;48.244;9.188;2023-11-21T00:17:24;5.40;91.30
75451;DHT22;64029;48.244;9.188;2023-11-21T00:19:51;5.40;91.30
75451;DHT22;64029;48.244;9.188;2023-11-21T00:22:20;5.40;91.30
75451;DHT22;64029;48.244;9.188;2023-11-21T00:24:46;5.40;91.50
75451;DHT22;64029;48.244;9.188;2023-11-21T00:27:13;5.40;91.70
75451;DHT22;64029;48.244;9.188;2023-11-21T00:29:40;5.40;91.50
75451;DHT22;64029;48.244;9.188;2023-11-21T00:32:07;5.40;91.70
75451;DHT22;64029;48.244;9.188;2023-11-21T00:34:34;5.40;91.90
75451;DHT22;64029;48.244;9.188;2023-11-21T00:37:01;5.50;91.60
75451;DHT22;64029;48.244;9.188;2023-11-21T00:39:29;5.50;91.70
75451;DHT22;64029;48.244;9.188;2023-11-21T00:41:58;5.50;92.00
75451;DHT22;64029;48.244;9.188;2023-11-21T00:44:25;5.50;92.00
75451;DHT22;64029;48.244;9.188;2023-11-21T00:46:51;5.50;91.70
75451;DHT22;64029;48.244;9.188;2023-11-21T00:49:18;5.50;91.80
75451;DHT22;64029;48.244;9.188;2023-11-21T00:51:46;5.50;91.90
75451;DHT22;64029;48.244;9.188;2023-11-21T00:54:13;5.50;91.80
75451;DHT22;64029;48.244;9.188;2023-11-21T00:56:43;5.50;91.80
75451;DHT22;64029;48.244;9.188;2023-11-21T00:59:13;5.50;91.90
75451;DHT22;64029;48.244;9.188;2023-11-21T01:01:39;5.50;91.80
75451;DHT22;64029;48.244;9.188;2023-11-21T01:04:06;5.50;91.90
75451;DHT22;64029;48.244;9.188;2023-11-21T01:06:33;5.50;91.80
75451;DHT22;64029;48.244;9.188;2023-11-21T01:09:00;5.50;92.00
75451;DHT22;64029;48.244;9.188;2023-11-21T01:11:29;5.50;92.00
75451;DHT22;64029;48.244;9.188;2023-11-21T01:13:57;5.50;92.10
75451;DHT22;64029;48.244;9.188;2023-11-21T01:16:25;5.50;92.00
75451;DHT22;64029;48.244;9.188;2023-11-21T01:18:53;5.60;92.40
75451;DHT22;64029;48.244;9.188;2023-11-21T01:21:20;5.60;92.10
75451;DHT22;64029;48.244;9.188;2023-11-21T01:23:47;5.50;92.00
75451;DHT22;64029;48.244;9.188;2023-11-21T01:26:14;5.50;92.10
75451;DHT22;64029;48.244;9.188;2023-11-21T01:28:40;5.50;92.10
75451;DHT22;64029;48.244;9.188;2023-11-21T01:31:09;5.50;92.10
75451;DHT22;64029;48.244;9.188;2023-11-21T01:33:35;5.50;92.10
75451;DHT22;64029;48.244;9.188;2023-11-21T01:36:03;5.60;92.20
75451;DHT22;64029;48.244;9.188;2023-11-21T01:38:30;5.50;92.10
75451;DHT22;64029;48.244;9.188;2023-11-21T01:40:58;5.60;92.30
75451;DHT22;64029;48.244;9.188;2023-11-21T01:43:26;5.60;92.30
75451;DHT22;64029;48.244;9.188;2023-11-21T01:45:54;5.60;92.30
75451;DHT22;64029;48.244;9.188;2023-11-21T01:48:24;5.60;92.30
75451;DHT22;64029;48.244;9.188;2023-11-21T01:50:51;5.60;92.30
75451;DHT22;64029;48.244;9.188;2023-11-21T01:53:18;5.60;92.30
75451;DHT22;64029;48.244;9.188;2023-11-21T01:55:46;5.60;92.40
75451;DHT22;64029;48.244;9.188;2023-11-21T01:58:14;5.60;92.30
75451;DHT22;64029;48.244;9.188;2023-11-21T02:00:42;5.60;92.40
75451;DHT22;64029;48.244;9.188;2023-11-21T02:03:09;5.60;92.30
75451;DHT22;64029;48.244;9.188;2023-11-21T02:05:39;5.60;92.40
75451;DHT22;64029;48.244;9.188;2023-11-21T02:08:06;5.60;92.30
75451;DHT22;64029;48.244;9.188;2023-11-21T02:10:35;5.60;92.40
75451;DHT22;64029;48.244;9.188;2023-11-21T02:13:03;5.60;92.40
75451;DHT22;64029;48.244;9.188;2023-11-21T02:15:29;5.60;92.40
75451;DHT22;64029;48.244;9.188;2023-11-21T02:17:57;5.60;92.50
75451;DHT22;64029;48.244;9.188;2023-11-21T02:20:24;5.60;92.50
75451;DHT22;64029;48.244;9.188;2023-11-21T02:22:54;5.60;92.50
75451;DHT22;64029;48.244;9.188;2023-11-21T02:25:23;5.60;92.50
75451;DHT22;64029;48.244;9.188;2023-11-21T02:27:50;5.60;92.50
75451;DHT22;64029;48.244;9.188;2023-11-21T02:30:17;5.60;92.50
75451;DHT22;64029;48.244;9.188;2023-11-21T02:32:44;5.60;92.70
75451;DHT22;64029;48.244;9.188;2023-11-21T02:35:12;5.60;92.60
75451;DHT22;64029;48.244;9.188;2023-11-21T02:37:38;5.60;92.60
75451;DHT22;64029;48.244;9.188;2023-11-21T02:40:09;5.60;92.60
75451;DHT22;64029;48.244;9.188;2023-11-21T02:42:38;5.60;92.60
75451;DHT22;64029;48.244;9.188;2023-11-21T02:45:06;5.60;92.50
75451;DHT22;64029;48.244;9.188;2023-11-21T02:47:33;5.60;92.60
75451;DHT22;64029;48.244;9.188;2023-11-21T02:50:00;5.60;92.50
75451;DHT22;64029;48.244;9.188;2023-11-21T02:52:27;5.60;92.60
75451;DHT22;64029;48.244;9.188;2023-11-21T02:54:53;5.60;92.50
75451;DHT22;64029;48.244;9.188;2023-11-21T02:57:21;5.60;92.60
75451;DHT22;64029;48.244;9.188;2023-11-21T02:59:51;5.60;92.50
75451;DHT22;64029;48.244;9.188;2023-11-21T03:02:18;5.60;92.60
75451;DHT22;64029;48.244;9.188;2023-11-21T03:04:44;5.60;92.70
75451;DHT22;64029;48.244;9.188;2023-11-21T03:07:13;5.60;92.70
75451;DHT22;64029;48.244;9.188;2023-11-21T03:09:40;5.60;92.70
75451;DHT22;64029;48.244;9.188;2023-11-21T03:12:08;5.60;92.70
75451;DHT22;64029;48.244;9.188;2023-11-21T03:14:36;5.60;92.70
75451;DHT22;64029;48.244;9.188;2023-11-21T03:17:03;5.60;92.70
75451;DHT22;64029;48.244;9.188;2023-11-21T03:19:32;5.60;92.60
75451;DHT22;64029;48.244;9.188;2023-11-21T03:21:59;5.60;92.60
75451;DHT22;64029;48.244;9.188;2023-11-21T03:24:25;5.60;92.50
75451;DHT22;64029;48.244;9.188;2023-11-21T03:26:52;5.60;92.60
75451;DHT22;64029;48.244;9.188;2023-11-21T03:29:19;5.60;92.60
75451;DHT22;64029;48.244;9.188;2023-11-21T03:31:47;5.60;92.60
75451;DHT22;64029;48.244;9.188;2023-11-21T03:34:19;5.60;92.60
75451;DHT22;64029;48.244;9.188;2023-11-21T03:36:46;5.60;92.60
75451;DHT22;64029;48.244;9.188;2023-11-21T03:39:13;5.60;92.60
75451;DHT22;64029;48.244;9.188;2023-11-21T03:41:40;5.50;92.50
75451;DHT22;64029;48.244;9.188;2023-11-21T03:44:06;5.50;92.50
75451;DHT22;64029;48.244;9.188;2023-11-21T03:46:33;5.50;92.50
75451;DHT22;64029;48.244;9.188;2023-11-21T03:49:02;5.50;92.80
75451;DHT22;64029;48.244;9.188;2023-11-21T03:51:29;5.50;92.50
75451;DHT22;64029;48.244;9.188;2023-11-21T03:53:55;5.50;92.50
75451;DHT22;64029;48.244;9.188;2023-11-21T03:56:22;5.50;92.80
75451;DHT22;64029;48.244;9.188;2023-11-21T03:58:49;5.50;92.50
75451;DHT22;64029;48.244;9.188;2023-11-21T04:01:20;5.50;92.50
75451;DHT22;64029;48.244;9.188;2023-11-21T04:03:48;5.50;92.50
75451;DHT22;64029;48.244;9.188;2023-11-21T04:06:16;5.50;92.50
75451;DHT22;64029;48.244;9.188;2023-11-21T04:08:43;5.50;92.50
75451;DHT22;64029;48.244;9.188;2023-11-21T04:11:10;5.50;92.60
75451;DHT22;64029;48.244;9.188;2023-11-21T04:13:38;5.50;92.50
75451;DHT22;64029;48.244;9.188;2023-11-21T04:16:05;5.50;92.50
75451;DHT22;64029;48.244;9.188;2023-11-21T04:18:33;5.50;92.50
75451;DHT22;64029;48.244;9.188;2023-11-21T04:21:01;5.50;92.50
75451;DHT22;64029;48.244;9.188;2023-11-21T04:23:29;5.50;92.90
75451;DHT22;64029;48.244;9.188;2023-11-21T04:25:57;5.50;92.60
75451;DHT22;64029;48.244;9.188;2023-11-21T04:28:24;5.50;92.60
75451;DHT22;64029;48.244;9.188;2023-11-21T04:30:51;5.50;92.60
75451;DHT22;64029;48.244;9.188;2023-11-21T04:33:18;5.50;92.60
75451;DHT22;64029;48.244;9.188;2023-11-21T04:35:45;5.50;92.60
75451;DHT22;64029;48.244;9.188;2023-11-21T04:38:11;5.50;92.60
75451;DHT22;64029;48.244;9.188;2023-11-21T04:40:40;5.50;92.60
75451;DHT22;64029;48.244;9.188;2023-11-21T04:43:06;5.50;92.60
75451;DHT22;64029;48.244;9.188;2023-11-21T04:45:33;5.50;92.70
75451;DHT22;64029;48.244;9.188;2023-11-21T04:48:00;5.50;92.70
75451;DHT22;64029;48.244;9.188;2023-11-21T04:50:27;5.50;92.70
75451;DHT22;64029;48.244;9.188;2023-11-21T04:52:54;5.50;92.80
75451;DHT22;64029;48.244;9.188;2023-11-21T04:55:20;5.50;92.70
75451;DHT22;64029;48.244;9.188;2023-11-21T04:57:48;5.50;92.70
75451;DHT22;64029;48.244;9.188;2023-11-21T05:00:16;5.50;92.70
75451;DHT22;64029;48.244;9.188;2023-11-21T05:02:43;5.50;92.70
75451;DHT22;64029;48.244;9.188;2023-11-21T05:05:10;5.50;92.70
75451;DHT22;64029;48.244;9.188;2023-11-21T05:07:38;5.50;92.70
75451;DHT22;64029;48.244;9.188;2023-11-21T05:10:05;5.50;92.70
75451;DHT22;64029;48.244;9.188;2023-11-21T05:12:36;5.50;92.70
75451;DHT22;64029;48.244;9.188;2023-11-21T05:15:06;5.50;92.70
75451;DHT22;64029;48.244;9.188;2023-11-21T05:17:35;5.50;92.70
75451;DHT22;64029;48.244;9.188;2023-11-21T05:20:03;5.50;92.70
75451;DHT22;64029;48.244;9.188;2023-11-21T05:22:34;5.50;92.70
75451;DHT22;64029;48.244;9.188;2023-11-21T05:25:01;5.40;92.60
75451;DHT22;64029;48.244;9.188;2023-11-21T05:27:29;5.50;92.70
75451;DHT22;64029;48.244;9.188;2023-11-21T05:29:56;5.40;92.70
75451;DHT22;64029;48.244;9.188;2023-11-21T05:32:24;5.40;92.70
75451;DHT22;64029;48.244;9.188;2023-11-21T05:34:52;5.40;92.70
75451;DHT22;64029;48.244;9.188;2023-11-21T05:37:18;5.40;92.70
75451;DHT22;64029;48.244;9.188;2023-11-21T05:39:45;5.40;92.70
75451;DHT22;64029;48.244;9.188;2023-11-21T05:42:12;5.40;92.70
75451;DHT22;64029;48.244;9.188;2023-11-21T05:44:42;5.40;92.70
75451;DHT22;64029;48.244;9.188;2023-11-21T05:47:09;5.40;92.70
75451;DHT22;64029;48.244;9.188;2023-11-21T05:49:38;5.40;92.70
75451;DHT22;64029;48.244;9.188;2023-11-21T05:52:05;5.40;92.70
75451;DHT22;64029;48.244;9.188;2023-11-21T05:54:32;5.30;92.60
75451;DHT22;64029;48.244;9.188;2023-11-21T05:56:59;5.30;92.60
75451;DHT22;64029;48.244;9.188;2023-11-21T05:59:26;5.30;92.70
75451;DHT22;64029;48.244;9.188;2023-11-21T06:01:53;5.30;92.70
75451;DHT22;64029;48.244;9.188;2023-11-21T06:04:20;5.30;92.70
75451;DHT22;64029;48.244;9.188;2023-11-21T06:06:51;5.30;92.70
75451;DHT22;64029;48.244;9.188;2023-11-21T06:09:18;5.30;92.70
75451;DHT22;64029;48.244;9.188;2023-11-21T06:11:45;5.30;92.70
75451;DHT22;64029;48.244;9.188;2023-11-21T06:14:11;5.30;92.70
75451;DHT22;64029;48.244;9.188;2023-11-21T06:16:38;5.30;92.70
75451;DHT22;64029;48.244;9.188;2023-11-21T06:19:06;5.30;92.80
75451;DHT22;64029;48.244;9.188;2023-11-21T06:21:33;5.30;92.80
75451;DHT22;64029;48.244;9.188;2023-11-21T06:24:02;5.30;92.70
75451;DHT22;64029;48.244;9.188;2023-11-21T06:26:29;5.30;92.70
75451;DHT22;64029;48.244;9.188;2023-11-21T06:28:57;5.30;93.00
75451;DHT22;64029;48.244;9.188;2023-11-21T06:31:24;5.30;92.70
75451;DHT22;64029;48.244;9.188;2023-11-21T06:33:51;5.30;92.70
75451;DHT22;64029;48.244;9.188;2023-11-21T06:36:18;5.30;92.80
75451;DHT22;64029;48.244;9.188;2023-11-21T06:38:45;5.30;92.80
75451;DHT22;64029;48.244;9.188;2023-11-21T06:41:13;5.30;92.80
75451;DHT22;64029;48.244;9.188;2023-11-21T06:43:41;5.30;92.90
75451;DHT22;64029;48.244;9.188;2023-11-21T06:46:10;5.30;92.80
75451;DHT22;64029;48.244;9.188;2023-11-21T06:48:40;5.30;92.80
75451;DHT22;64029;48.244;9.188;2023-11-21T06:51:07;5.30;93.20
75451;DHT22;64029;48.244;9.188;2023-11-21T06:53:34;5.30;92.90
75451;DHT22;64029;48.244;9.188;2023-11-21T06:56:02;5.30;93.20
75451;DHT22;64029;48.244;9.188;2023-11-21T06:58:30;5.30;92.90
75451;DHT22;64029;48.244;9.188;2023-11-21T07:00:57;5.30;92.90
75451;DHT22;64029;48.244;9.188;2023-11-21T07:03:24;5.30;93.00
75451;DHT22;64029;48.244;9.188;2023-11-21T07:05:51;5.30;93.10
75451;DHT22;64029;48.244;9.188;2023-11-21T07:08:18;5.30;93.00
75451;DHT22;64029;48.244;9.188;2023-11-21T07:10:45;5.30;93.00
75451;DHT22;64029;48.244;9.188;2023-11-21T07:13:12;5.40;93.10
75451;DHT22;64029;48.244;9.188;2023-11-21T07:15:41;5.40;93.10
75451;DHT22;64029;48.244;9.188;2023-11-21T07:18:09;5.40;93.10
75451;DHT22;64029;48.244;9.188;2023-11-21T07:20:37;5.40;93.10
75451;DHT22;64029;48.244;9.188;2023-11-21T07:23:03;5.40;93.10
75451;DHT22;64029;48.244;9.188;2023-11-21T07:25:31;5.40;93.10
75451;DHT22;64029;48.244;9.188;2023-11-21T07:27:59;5.40;93.10
75451;DHT22;64029;48.244;9.188;2023-11-21T07:30:26;5.40;93.10
75451;DHT22;64029;48.244;9.188;2023-11-21T07:32:54;5.40;93.10
75451;DHT22;64029;48.244;9.188;2023-11-21T07:35:21;5.40;93.10
75451;DHT22;64029;48.244;9.188;2023-11-21T07:37:48;5.40;93.20
75451;DHT22;64029;48.244;9.188;2023-11-21T07:40:16;5.40;93.20
75451;DHT22;64029;48.244;9.188;2023-11-21T07:42:43;5.50;93.20
75451;DHT22;64029;48.244;9.188;2023-11-21T07:45:10;5.40;93.00
75451;DHT22;64029;48.244;9.188;2023-11-21T07:47:37;5.40;93.00
75451;DHT22;64029;48.244;9.188;2023-11-21T07:50:07;5.50;93.10
75451;DHT22;64029;48.244;9.188;2023-11-21T07:52:34;5.50;93.10
75451;DHT22;64029;48.244;9.188;2023-11-21T07:55:01;5.50;93.00
75451;DHT22;64029;48.244;9.188;2023-11-21T07:57:29;5.50;93.00
75451;DHT22;64029;48.244;9.188;2023-11-21T07:59:56;5.60;93.20
75451;DHT22;64029;48.244;9.188;2023-11-21T08:02:22;5.60;93.20
75451;DHT22;64029;48.244;9.188;2023-11-21T08:04:49;5.60;93.10
75451;DHT22;64029;48.244;9.188;2023-11-21T08:07:18;5.60;93.20
75451;DHT22;64029;48.244;9.188;2023-11-21T08:09:45;5.60;93.10
75451;DHT22;64029;48.244;9.188;2023-11-21T08:12:14;5.60;93.20
75451;DHT22;64029;48.244;9.188;2023-11-21T08:14:42;5.60;93.10
75451;DHT22;64029;48.244;9.188;2023-11-21T08:17:10;5.60;93.10
75451;DHT22;64029;48.244;9.188;2023-11-21T08:19:36;5.60;93.10
75451;DHT22;64029;48.244;9.188;2023-11-21T08:22:04;5.70;93.10
75451;DHT22;64029;48.244;9.188;2023-11-21T08:24:35;5.70;93.10
75451;DHT22;64029;48.244;9.188;2023-11-21T08:27:03;5.70;93.00
75451;DHT22;64029;48.244;9.188;2023-11-21T08:29:30;5.70;93.00
75451;DHT22;64029;48.244;9.188;2023-11-21T08:31:57;5.80;93.00
75451;DHT22;64029;48.244;9.188;2023-11-21T08:34:25;5.80;93.10
75451;DHT22;64029;48.244;9.188;2023-11-21T08:36:52;5.80;93.60
75451;DHT22;64029;48.244;9.188;2023-11-21T08:39:19;5.90;93.20
75451;DHT22;64029;48.244;9.188;2023-11-21T08:41:47;5.90;93.10
75451;DHT22;64029;48.244;9.188;2023-11-21T08:44:14;5.90;93.10
75451;DHT22;64029;48.244;9.188;2023-11-21T08:46:42;6.00;93.10
75451;DHT22;64029;48.244;9.188;2023-11-21T08:49:10;6.00;93.10
75451;DHT22;64029;48.244;9.188;2023-11-21T08:51:37;6.00;93.20
75451;DHT22;64029;48.244;9.188;2023-11-21T08:54:05;6.10;93.20
75451;DHT22;64029;48.244;9.188;2023-11-21T08:56:33;6.10;93.20
75451;DHT22;64029;48.244;9.188;2023-11-21T08:59:02;6.20;93.50
75451;DHT22;64029;48.244;9.188;2023-11-21T09:01:29;6.20;93.50
75451;DHT22;64029;48.244;9.188;2023-11-21T09:03:57;6.20;93.50
75451;DHT22;64029;48.244;9.188;2023-11-21T09:06:24;6.30;93.50
75451;DHT22;64029;48.244;9.188;2023-11-21T09:08:51;6.30;93.50
75451;DHT22;64029;48.244;9.188;2023-11-21T09:11:18;6.40;93.60
75451;DHT22;64029;48.244;9.188;2023-11-21T09:13:45;6.40;93.70
75451;DHT22;64029;48.244;9.188;2023-11-21T09:16:14;6.40;93.60
75451;DHT22;64029;48.244;9.188;2023-11-21T09:18:41;6.40;93.60
75451;DHT22;64029;48.244;9.188;2023-11-21T09:21:08;6.50;93.70
75451;DHT22;64029;48.244;9.188;2023-11-21T09:23:35;6.50;93.70
75451;DHT22;64029;48.244;9.188;2023-11-21T09:26:02;6.50;93.70
75451;DHT22;64029;48.244;9.188;2023-11-21T09:28:30;6.50;93.80
75451;DHT22;64029;48.244;9.188;2023-11-21T09:30:57;6.60;93.80
75451;DHT22;64029;48.244;9.188;2023-11-21T09:33:25;6.60;93.70
75451;DHT22;64029;48.244;9.188;2023-11-21T09:35:52;6.60;93.70
75451;DHT22;64029;48.244;9.188;2023-11-21T09:38:19;6.70;93.70
75451;DHT22;64029;48.244;9.188;2023-11-21T09:40:46;6.70;93.70
75451;DHT22;64029;48.244;9.188;2023-11-21T09:43:16;6.70;93.70
75451;DHT22;64029;48.244;9.188;2023-11-21T09:45:45;6.80;93.80
75451;DHT22;64029;48.244;9.188;2023-11-21T09:48:13;6.80;93.80
75451;DHT22;64029;48.244;9.188;2023-11-21T09:50:43;6.80;93.80
75451;DHT22;64029;48.244;9.188;2023-11-21T09:53:13;6.80;93.90
75451;DHT22;64029;48.244;9.188;2023-11-21T09:55:42;6.90;93.90
75451;DHT22;64029;48.244;9.188;2023-11-21T09:58:10;6.80;93.80
75451;DHT22;64029;48.244;9.188;2023-11-21T10:00:40;6.90;94.00
75451;DHT22;64029;48.244;9.188;2023-11-21T10:03:07;6.90;93.90
75451;DHT22;64029;48.244;9.188;2023-11-21T10:05:34;6.90;93.70
75451;DHT22;64029;48.244;9.188;2023-11-21T10:08:05;6.90;93.60
75451;DHT22;64029;48.244;9.188;2023-11-21T10:10:33;7.00;93.60
75451;DHT22;64029;48.244;9.188;2023-11-21T10:13:03;7.00;93.60
75451;DHT22;64029;48.244;9.188;2023-11-21T10:15:33;7.00;93.60
75451;DHT22;64029;48.244;9.188;2023-11-21T10:18:02;7.00;93.40
75451;DHT22;64029;48.244;9.188;2023-11-21T10:20:30;7.00;93.40
75451;DHT22;64029;48.244;9.188;2023-11-21T10:22:59;7.10;93.30
75451;DHT22;64029;48.244;9.188;2023-11-21T10:25:29;7.10;93.20
75451;DHT22;64029;48.244;9.188;2023-11-21T10:27:58;7.10;93.20
75451;DHT22;64029;48.244;9.188;2023-11-21T10:30:32;7.10;93.60
75451;DHT22;64029;48.244;9.188;2023-11-21T10:33:03;7.20;93.20
75451;DHT22;64029;48.244;9.188;2023-11-21T10:35:43;7.20;93.10
75451;DHT22;64029;48.244;9.188;2023-11-21T10:38:14;7.20;93.10
75451;DHT22;64029;48.244;9.188;2023-11-21T10:40:42;7.20;93.10
75451;DHT22;64029;48.244;9.188;2023-11-21T10:43:10;7.30;93.10
75451;DHT22;64029;48.244;9.188;2023-11-21T10:45:39;7.30;93.10
75451;DHT22;64029;48.244;9.188;2023-11-21T10:48:07;7.30;93.10
75451;DHT22;64029;48.244;9.188;2023-11-21T10:50:35;7.30;93.00
75451;DHT22;64029;48.244;9.188;2023-11-21T10:53:02;7.30;93.10
75451;DHT22;64029;48.244;9.188;2023-11-21T10:55:30;7.30;93.10
75451;DHT22;64029;48.244;9.188;2023-11-21T10:58:00;7.30;92.80
75451;DHT22;64029;48.244;9.188;2023-11-21T11:00:31;7.40;93.00
75451;DHT22;64029;48.244;9.188;2023-11-21T11:02:59;7.40;93.00
75451;DHT22;64029;48.244;9.188;2023-11-21T11:05:27;7.40;92.90
75451;DHT22;64029;48.244;9.188;2023-11-21T11:07:58;7.40;93.00
75451;DHT22;64029;48.244;9.188;2023-11-21T11:10:27;7.40;92.90
75451;DHT22;64029;48.244;9.188;2023-11-21T11:12:55;7.40;92.90
75451;DHT22;64029;48.244;9.188;2023-11-21T11:15:24;7.50;92.90
75451;DHT22;64029;48.244;9.188;2023-11-21T11:17:52;7.50;92.90
75451;DHT22;64029;48.244;9.188;2023-11-21T11:20:23;7.50;92.70
75451;DHT22;64029;48.244;9.188;2023-11-21T11:23:13;7.50;92.70
75451;DHT22;64029;48.244;9.188;2023-11-21T11:25:57;7.50;92.70
75451;DHT22;64029;48.244;9.188;2023-11-21T11:28:32;7.50;92.70
75451;DHT22;64029;48.244;9.188;2023-11-21T11:31:13;7.50;92.60
75451;DHT22;64029;48.244;9.188;2023-11-21T11:33:59;7.50;92.60
75451;DHT22;64029;48.244;9.188;2023-11-21T11:36:35;7.50;93.00
75451;DHT22;64029;48.244;9.188;2023-11-21T11:39:04;7.50;92.60
75451;DHT22;64029;48.244;9.188;2023-11-21T11:41:50;7.50;92.40
75451;DHT22;64029;48.244;9.188;2023-11-21T11:44:46;7.50;92.50
75451;DHT22;64029;48.244;9.188;2023-11-21T11:47:20;7.50;92.60
75451;DHT22;64029;48.244;9.188;2023-11-21T11:50:01;7.60;92.60
75451;DHT22;64029;48.244;9.188;2023-11-21T11:52:37;7.60;92.60
75451;DHT22;64029;48.244;9.188;2023-11-21T11:55:06;7.60;92.60
75451;DHT22;64029;48.244;9.188;2023-11-21T11:57:35;7.60;92.50
75451;DHT22;64029;48.244;9.188;2023-11-21T12:00:15;7.60;92.50
75451;DHT22;64029;48.244;9.188;2023-11-21T12:02:47;7.60;92.50
75451;DHT22;64029;48.244;9.188;2023-11-21T12:05:15;7.60;92.40
75451;DHT22;64029;48.244;9.188;2023-11-21T12:07:47;7.60;92.70
75451;DHT22;64029;48.244;9.188;2023-11-21T12:10:15;7.60;92.30
75451;DHT22;64029;48.244;9.188;2023-11-21T12:12:44;7.60;92.40
75451;DHT22;64029;48.244;9.188;2023-11-21T12:15:12;7.60;92.30
75451;DHT22;64029;48.244;9.188;2023-11-21T12:17:40;7.70;92.50
75451;DHT22;64029;48.244;9.188;2023-11-21T12:20:11;7.70;92.60
75451;DHT22;64029;48.244;9.188;2023-11-21T12:22:44;7.70;92.60
75451;DHT22;64029;48.244;9.188;2023-11-21T12:25:14;7.70;92.70
75451;DHT22;64029;48.244;9.188;2023-11-21T12:27:44;7.70;92.80
75451;DHT22;64029;48.244;9.188;2023-11-21T12:30:13;7.70;92.80
75451;DHT22;64029;48.244;9.188;2023-11-21T12:32:41;7.70;92.80
75451;DHT22;64029;48.244;9.188;2023-11-21T12:35:10;7.80;92.90
75451;DHT22;64029;48.244;9.188;2023-11-21T12:37:38;7.80;93.30
75451;DHT22;64029;48.244;9.188;2023-11-21T12:40:06;7.80;93.00
75451;DHT22;64029;48.244;9.188;2023-11-21T12:42:37;7.80;93.00
75451;DHT22;64029;48.244;9.188;2023-11-21T12:45:18;7.80;92.90
75451;DHT22;64029;48.244;9.188;2023-11-21T12:47:46;7.80;92.90
75451;DHT22;64029;48.244;9.188;2023-11-21T12:50:15;7.80;92.80
75451;DHT22;64029;48.244;9.188;2023-11-21T12:52:43;7.90;92.80
75451;DHT22;64029;48.244;9.188;2023-11-21T12:55:16;7.80;92.80
75451;DHT22;64029;48.244;9.188;2023-11-21T12:57:44;7.80;92.80
75451;DHT22;64029;48.244;9.188;2023-11-21T13:00:13;7.80;92.70
75451;DHT22;64029;48.244;9.188;2023-11-21T13:02:52;7.80;92.60
75451;DHT22;64029;48.244;9.188;2023-11-21T13:05:27;7.80;92.60
75451;DHT22;64029;48.244;9.188;2023-11-21T13:07:55;7.80;92.70
75451;DHT22;64029;48.244;9.188;2023-11-21T13:10:24;7.80;92.70
75451;DHT22;64029;48.244;9.188;2023-11-21T13:12:55;7.90;92.60
75451;DHT22;64029;48.244;9.188;2023-11-21T13:15:23;7.90;92.60
75451;DHT22;64029;48.244;9.188;2023-11-21T13:17:50;7.90;92.50
75451;DHT22;64029;48.244;9.188;2023-11-21T13:20:19;7.90;92.50
75451;DHT22;64029;48.244;9.188;2023-11-21T13:22:48;7.90;92.40
75451;DHT22;64029;48.244;9.188;2023-11-21T13:25:17;7.90;92.30
75451;DHT22;64029;48.244;9.188;2023-11-21T13:27:45;7.90;92.10
75451;DHT22;64029;48.244;9.188;2023-11-21T13:30:13;7.90;92.30
75451;DHT22;64029;48.244;9.188;2023-11-21T13:32:44;7.90;92.20
75451;DHT22;64029;48.244;9.188;2023-11-21T13:35:11;7.90;92.20
75451;DHT22;64029;48.244;9.188;2023-11-21T13:37:41;7.90;92.20
75451;DHT22;64029;48.244;9.188;2023-11-21T13:40:12;7.90;92.10
75451;DHT22;64029;48.244;9.188;2023-11-21T13:42:41;7.90;92.20
75451;DHT22;64029;48.244;9.188;2023-11-21T13:45:09;7.90;92.10
75451;DHT22;64029;48.244;9.188;2023-11-21T13:47:37;7.90;92.00
75451;DHT22;64029;48.244;9.188;2023-11-21T13:50:06;7.90;92.00
75451;DHT22;64029;48.244;9.188;2023-11-21T13:52:39;7.90;92.10
75451;DHT22;64029;48.244;9.188;2023-11-21T13:55:06;7.90;92.10
75451;DHT22;64029;48.244;9.188;2023-11-21T13:57:41;7.90;92.20
75451;DHT22;64029;48.244;9.188;2023-11-21T14:00:11;7.90;92.20
75451;DHT22;64029;48.244;9.188;2023-11-21T14:02:59;7.90;92.20
75451;DHT22;64029;48.244;9.188;2023-11-21T14:05:27;7.90;92.20
75451;DHT22;64029;48.244;9.188;2023-11-21T14:07:55;7.90;92.20
75451;DHT22;64029;48.244;9.188;2023-11-21T14:10:27;7.90;92.20
75451;DHT22;64029;48.244;9.188;2023-11-21T14:13:04;7.90;92.20
75451;DHT22;64029;48.244;9.188;2023-11-21T14:15:31;7.80;92.20
75451;DHT22;64029;48.244;9.188;2023-11-21T14:18:02;7.70;92.40
75451;DHT22;64029;48.244;9.188;2023-11-21T14:20:33;7.80;92.40
75451;DHT22;64029;48.244;9.188;2023-11-21T14:23:01;7.80;92.30
75451;DHT22;64029;48.244;9.188;2023-11-21T14:25:28;7.80;92.40
75451;DHT22;64029;48.244;9.188;2023-11-21T14:27:55;7.80;92.30
75451;DHT22;64029;48.244;9.188;2023-11-21T14:30:24;7.80;92.40
75451;DHT22;64029;48.244;9.188;2023-11-21T14:32:51;7.80;92.40
75451;DHT22;64029;48.244;9.188;2023-11-21T14:35:18;7.80;92.40
75451;DHT22;64029;48.244;9.188;2023-11-21T14:37:45;7.80;92.40
75451;DHT22;64029;48.244;9.188;2023-11-21T14:40:12;7.70;92.40
75451;DHT22;64029;48.244;9.188;2023-11-21T14:42:42;7.70;92.40
75451;DHT22;64029;48.244;9.188;2023-11-21T14:45:12;7.70;92.40
75451;DHT22;64029;48.244;9.188;2023-11-21T14:47:46;7.70;92.40
75451;DHT22;64029;48.244;9.188;2023-11-21T14:50:21;7.70;92.40
75451;DHT22;64029;48.244;9.188;2023-11-21T14:53:08;7.70;92.40
75451;DHT22;64029;48.244;9.188;2023-11-21T14:55:38;7.70;92.40
75451;DHT22;64029;48.244;9.188;2023-11-21T14:58:18;7.70;92.40
75451;DHT22;64029;48.244;9.188;2023-11-21T15:00:52;7.70;92.50
75451;DHT22;64029;48.244;9.188;2023-11-21T15:03:25;7.70;92.50
75451;DHT22;64029;48.244;9.188;2023-11-21T15:06:15;7.60;92.50
75451;DHT22;64029;48.244;9.188;2023-11-21T15:08:48;7.60;92.50
75451;DHT22;64029;48.244;9.188;2023-11-21T15:11:19;7.60;92.50
75451;DHT22;64029;48.244;9.188;2023-11-21T15:13:47;7.60;92.40
75451;DHT22;64029;48.244;9.188;2023-11-21T15:16:16;7.60;92.40
75451;DHT22;64029;48.244;9.188;2023-11-21T15:18:45;7.60;92.40
75451;DHT22;64029;48.244;9.188;2023-11-21T15:21:12;7.60;92.40
75451;DHT22;64029;48.244;9.188;2023-11-21T15:23:38;7.50;92.30
75451;DHT22;64029;48.244;9.188;2023-11-21T15:26:07;7.50;92.30
75451;DHT22;64029;48.244;9.188;2023-11-21T15:28:35;7.50;92.30
75451;DHT22;64029;48.244;9.188;2023-11-21T15:31:02;7.50;92.30
75451;DHT22;64029;48.244;9.188;2023-11-21T15:33:29;7.50;92.30
75451;DHT22;64029;48.244;9.188;2023-11-21T15:35:58;7.50;92.20
75451;DHT22;64029;48.244;9.188;2023-11-21T15:38:24;7.50;92.20
75451;DHT22;64029;48.244;9.188;2023-11-21T15:40:51;7.40;92.20
75451;DHT22;64029;48.244;9.188;2023-11-21T15:43:19;7.40;92.20
75451;DHT22;64029;48.244;9.188;2023-11-21T15:45:46;7.40;92.20
75451;DHT22;64029;48.244;9.188;2023-11-21T15:48:12;7.40;92.20
75451;DHT22;64029;48.244;9.188;2023-11-21T15:50:42;7.40;92.20
75451;DHT22;64029;48.244;9.188;2023-11-21T15:53:10;7.40;92.20